createdAt,value
2022-07-30T00:00:23.814Z,94320.53
2022-07-30T00:02:52.579Z,94310.06
2022-07-30T00:05:19.570Z,94305.31
2022-07-30T00:07:46.362Z,94314.59
2022-07-30T00:10:13.207Z,94316.16
2022-07-30T00:12:39.932Z,94319.16
2022-07-30T00:15:07.466Z,94319.94
2022-07-30T00:17:34.248Z,94310.53
2022-07-30T00:20:01.285Z,94308.06
2022-07-30T00:22:30.865Z,94309.69
2022-07-30T00:24:57.726Z,94316.88
2022-07-30T00:27:24.595Z,94314.94
2022-07-30T00:29:51.299Z,94311.88
2022-07-30T00:32:18.045Z,94306.16
2022-07-30T00:34:44.880Z,94306.47
2022-07-30T00:37:11.535Z,94313.44
2022-07-30T00:39:38.291Z,94306.75
2022-07-30T00:42:05.090Z,94299.41
2022-07-30T00:44:31.902Z,94308.31
2022-07-30T00:46:59.335Z,94321.84
2022-07-30T00:49:26.970Z,94318.38
2022-07-30T00:51:54.106Z,94317.56
2022-07-30T00:54:21.571Z,94317.47
2022-07-30T00:56:49.070Z,94318.19
2022-07-30T00:59:16.161Z,94311.78
2022-07-30T01:01:42.912Z,94316.41
2022-07-30T01:04:14.084Z,94322.56
2022-07-30T01:06:40.863Z,94318.16
2022-07-30T01:09:08.342Z,94309.16
2022-07-30T01:11:40.170Z,94323.56
2022-07-30T01:14:08.180Z,94320.44
2022-07-30T01:16:36.520Z,94322.38
2022-07-30T01:19:26.334Z,94328.56
2022-07-30T01:22:06.969Z,94326.22
2022-07-30T01:24:36.860Z,94322.66
2022-07-30T01:27:04.673Z,94328.50
2022-07-30T01:29:33.835Z,94325.38
2022-07-30T01:32:04.711Z,94325.69
2022-07-30T01:34:33.996Z,94326.94
2022-07-30T01:37:02.892Z,94322.22
2022-07-30T01:39:30.701Z,94315.94
2022-07-30T01:41:58.888Z,94321.28
2022-07-30T01:44:27.311Z,94328.25
2022-07-30T01:46:55.889Z,94326.41
2022-07-30T01:49:26.025Z,94330.94
2022-07-30T01:51:54.899Z,94327.47
2022-07-30T01:54:25.508Z,94324.69
2022-07-30T01:56:55.401Z,94333.22
2022-07-30T01:59:25.060Z,94334.38
2022-07-30T02:01:52.810Z,94322.00
2022-07-30T02:04:19.936Z,94329.38
2022-07-30T02:07:11.296Z,94324.97
2022-07-30T02:09:47.362Z,94323.47
2022-07-30T02:12:30.398Z,94325.75
2022-07-30T02:15:20.709Z,94328.81
2022-07-30T02:18:01.871Z,94320.28
2022-07-30T02:20:32.104Z,94334.53
2022-07-30T02:23:09.290Z,94327.91
2022-07-30T02:25:42.208Z,94333.44
2022-07-30T02:28:13.007Z,94329.16
2022-07-30T02:30:52.697Z,94324.56
2022-07-30T02:33:28.660Z,94322.09
2022-07-30T02:35:57.051Z,94328.00
2022-07-30T02:38:28.016Z,94329.34
2022-07-30T02:40:58.258Z,94335.94
2022-07-30T02:43:26.726Z,94330.81
2022-07-30T02:45:53.939Z,94336.09
2022-07-30T02:48:34.340Z,94329.44
2022-07-30T02:51:04.238Z,94332.91
2022-07-30T02:53:32.864Z,94332.84
2022-07-30T02:56:01.959Z,94326.56
2022-07-30T02:58:29.380Z,94328.50
2022-07-30T03:00:57.632Z,94333.88
2022-07-30T03:03:29.132Z,94331.13
2022-07-30T03:05:57.593Z,94333.47
2022-07-30T03:08:27.810Z,94329.53
2022-07-30T03:10:56.311Z,94326.13
2022-07-30T03:13:25.130Z,94326.22
2022-07-30T03:15:53.947Z,94331.69
2022-07-30T03:18:22.182Z,94329.44
2022-07-30T03:20:53.571Z,94329.53
2022-07-30T03:23:21.350Z,94341.63
2022-07-30T03:25:54.591Z,94339.38
2022-07-30T03:28:23.608Z,94348.31
2022-07-30T03:30:52.114Z,94345.69
2022-07-30T03:33:20.237Z,94353.44
2022-07-30T03:35:49.340Z,94343.00
2022-07-30T03:38:16.979Z,94351.88
2022-07-30T03:40:45.461Z,94351.19
2022-07-30T03:43:32.316Z,94349.19
2022-07-30T03:46:03.798Z,94351.09
2022-07-30T03:48:35.319Z,94355.00
2022-07-30T03:51:07.855Z,94354.88
2022-07-30T03:53:35.103Z,94359.28
2022-07-30T03:56:20.852Z,94357.72
2022-07-30T03:58:53.598Z,94361.13
2022-07-30T04:01:25.082Z,94371.22
2022-07-30T04:03:55.222Z,94372.78
2022-07-30T04:06:22.671Z,94373.06
2022-07-30T04:08:49.371Z,94372.28
2022-07-30T04:11:16.157Z,94376.19
2022-07-30T04:13:47.482Z,94369.22
2022-07-30T04:16:39.549Z,94387.06
2022-07-30T04:19:35.908Z,94389.41
2022-07-30T04:22:03.272Z,94387.00
2022-07-30T04:24:33.657Z,94399.50
2022-07-30T04:27:02.445Z,94395.25
2022-07-30T04:29:30.773Z,94404.63
2022-07-30T04:31:58.159Z,94405.84
2022-07-30T04:34:53.216Z,94412.47
2022-07-30T04:37:38.981Z,94398.81
2022-07-30T04:40:06.607Z,94410.81
2022-07-30T04:42:33.347Z,94413.88
2022-07-30T04:45:11.805Z,94415.44
2022-07-30T04:47:49.854Z,94417.72
2022-07-30T04:50:22.603Z,94422.41
2022-07-30T04:52:51.136Z,94411.97
2022-07-30T04:55:27.193Z,94422.06
2022-07-30T04:57:55.104Z,94429.13
2022-07-30T05:00:22.199Z,94424.13
2022-07-30T05:02:52.016Z,94434.34
2022-07-30T05:05:20.953Z,94442.19
2022-07-30T05:07:48.782Z,94415.00
2022-07-30T05:10:15.904Z,94428.25
2022-07-30T05:12:42.915Z,94424.75
2022-07-30T05:15:11.356Z,94426.03
2022-07-30T05:17:38.259Z,94428.50
2022-07-30T05:20:08.660Z,94422.81
2022-07-30T05:22:58.656Z,94430.81
2022-07-30T05:25:25.698Z,94438.66
2022-07-30T05:27:58.285Z,94426.84
2022-07-30T05:30:27.767Z,94440.25
2022-07-30T05:32:57.786Z,94427.44
2022-07-30T05:35:28.317Z,94427.88
2022-07-30T05:37:55.391Z,94436.13
2022-07-30T05:40:22.289Z,94443.31
2022-07-30T05:43:07.441Z,94439.88
2022-07-30T05:45:34.196Z,94438.47
2022-07-30T05:48:00.965Z,94439.81
2022-07-30T05:50:28.000Z,94438.50
2022-07-30T05:52:56.107Z,94444.16
2022-07-30T05:55:43.062Z,94445.41
2022-07-30T05:58:29.938Z,94436.13
2022-07-30T06:00:56.985Z,94449.47
2022-07-30T06:03:27.172Z,94450.84
2022-07-30T06:06:13.123Z,94460.66
2022-07-30T06:08:40.008Z,94458.41
2022-07-30T06:11:08.976Z,94455.03
2022-07-30T06:13:38.535Z,94461.44
2022-07-30T06:16:05.723Z,94453.75
2022-07-30T06:18:34.332Z,94470.56
2022-07-30T06:21:02.986Z,94464.50
2022-07-30T06:23:59.271Z,94470.03
2022-07-30T06:26:48.899Z,94470.97
2022-07-30T06:29:19.518Z,94473.06
2022-07-30T06:31:46.221Z,94472.69
2022-07-30T06:34:12.957Z,94472.41
2022-07-30T06:36:42.516Z,94472.88
2022-07-30T06:39:14.894Z,94484.28
2022-07-30T06:42:20.470Z,94485.50
2022-07-30T06:45:06.456Z,94482.81
2022-07-30T06:47:59.918Z,94482.56
2022-07-30T06:50:29.588Z,94487.25
2022-07-30T06:52:56.427Z,94489.25
2022-07-30T06:55:25.703Z,94495.19
2022-07-30T06:57:57.156Z,94490.25
2022-07-30T07:00:44.889Z,94493.78
2022-07-30T07:03:13.718Z,94502.81
2022-07-30T07:05:40.647Z,94493.88
2022-07-30T07:08:07.397Z,94510.25
2022-07-30T07:10:38.680Z,94508.38
2022-07-30T07:13:22.143Z,94513.47
2022-07-30T07:15:49.431Z,94516.59
2022-07-30T07:18:20.067Z,94512.31
2022-07-30T07:20:52.091Z,94518.16
2022-07-30T07:23:19.825Z,94519.34
2022-07-30T07:25:49.310Z,94524.44
2022-07-30T07:28:16.624Z,94518.63
2022-07-30T07:30:44.616Z,94516.66
2022-07-30T07:33:13.393Z,94518.22
2022-07-30T07:35:49.526Z,94515.09
2022-07-30T07:38:24.880Z,94513.94
2022-07-30T07:40:53.630Z,94511.22
2022-07-30T07:43:20.383Z,94519.38
2022-07-30T07:45:47.175Z,94520.16
2022-07-30T07:48:14.171Z,94516.63
2022-07-30T07:50:59.761Z,94523.97
2022-07-30T07:53:29.789Z,94520.47
2022-07-30T07:55:57.385Z,94515.31
2022-07-30T07:58:26.461Z,94521.91
2022-07-30T08:00:56.903Z,94527.31
2022-07-30T08:03:36.865Z,94520.59
2022-07-30T08:06:18.839Z,94525.53
2022-07-30T08:09:17.704Z,94523.94
2022-07-30T08:12:04.164Z,94524.34
2022-07-30T08:14:51.096Z,94530.44
2022-07-30T08:17:55.989Z,94523.69
2022-07-30T08:20:35.917Z,94532.34
2022-07-30T08:23:02.733Z,94539.69
2022-07-30T08:25:29.542Z,94534.66
2022-07-30T08:27:56.495Z,94538.53
2022-07-30T08:30:24.815Z,94532.47
2022-07-30T08:32:51.598Z,94526.94
2022-07-30T08:35:19.948Z,94529.50
2022-07-30T08:37:46.768Z,94527.81
2022-07-30T08:40:15.054Z,94538.72
2022-07-30T08:42:52.721Z,94532.69
2022-07-30T08:45:20.604Z,94542.22
2022-07-30T08:48:16.704Z,94534.69
2022-07-30T08:50:46.160Z,94548.97
2022-07-30T08:53:48.712Z,94541.28
2022-07-30T08:56:16.398Z,94550.69
2022-07-30T08:58:46.057Z,94545.50
2022-07-30T09:01:16.231Z,94543.81
2022-07-30T09:03:44.050Z,94545.22
2022-07-30T09:06:11.723Z,94539.97
2022-07-30T09:08:38.483Z,94543.50
2022-07-30T09:11:05.304Z,94543.59
2022-07-30T09:13:35.282Z,94540.47
2022-07-30T09:16:02.861Z,94552.28
2022-07-30T09:18:34.121Z,94554.28
2022-07-30T09:21:14.396Z,94544.66
2022-07-30T09:23:41.634Z,94550.50
2022-07-30T09:26:35.223Z,94549.56
2022-07-30T09:29:28.661Z,94553.19
2022-07-30T09:32:14.046Z,94549.56
2022-07-30T09:35:12.976Z,94549.41
2022-07-30T09:38:12.608Z,94551.03
2022-07-30T09:41:00.118Z,94557.81
2022-07-30T09:43:46.326Z,94552.16
2022-07-30T09:46:20.798Z,94559.00
2022-07-30T09:48:48.575Z,94552.94
2022-07-30T09:51:16.154Z,94549.50
2022-07-30T09:53:54.739Z,94543.44
2022-07-30T09:56:25.960Z,94555.25
2022-07-30T09:58:53.884Z,94559.09
2022-07-30T10:01:24.112Z,94548.81
2022-07-30T10:04:36.540Z,94548.53
2022-07-30T10:07:25.329Z,94559.03
2022-07-30T10:10:00.385Z,94551.69
2022-07-30T10:12:28.923Z,94551.56
2022-07-30T10:15:01.939Z,94552.22
2022-07-30T10:17:34.344Z,94547.69
2022-07-30T10:20:18.335Z,94540.06
2022-07-30T10:23:09.312Z,94548.00
2022-07-30T10:25:49.617Z,94549.81
2022-07-30T10:28:53.443Z,94549.25
2022-07-30T10:31:48.072Z,94540.78
2022-07-30T10:34:07.759Z,94546.44
2022-07-30T10:36:35.961Z,94546.03
2022-07-30T10:39:03.531Z,94540.72
2022-07-30T10:41:48.221Z,94542.31
2022-07-30T10:44:27.354Z,94543.19
2022-07-30T10:46:54.737Z,94541.50
2022-07-30T10:49:25.735Z,94547.44
2022-07-30T10:51:57.483Z,94553.63
2022-07-30T10:54:33.592Z,94543.78
2022-07-30T10:57:04.604Z,94541.53
2022-07-30T10:59:58.695Z,94545.34
2022-07-30T11:02:30.653Z,94541.63
2022-07-30T11:05:17.310Z,94549.03
2022-07-30T11:07:47.831Z,94546.47
2022-07-30T11:10:43.938Z,94537.94
2022-07-30T11:13:10.907Z,94541.88
2022-07-30T11:16:04.143Z,94547.19
2022-07-30T11:19:53.146Z,94547.28
2022-07-30T11:22:22.912Z,94551.66
2022-07-30T11:24:50.425Z,94542.97
2022-07-30T11:27:36.938Z,94542.25
2022-07-30T11:30:29.454Z,94548.00
2022-07-30T11:33:05.238Z,94538.59
2022-07-30T11:35:35.173Z,94538.53
2022-07-30T11:38:18.719Z,94540.25
2022-07-30T11:40:45.774Z,94544.00
2022-07-30T11:43:34.923Z,94539.03
2022-07-30T11:46:12.316Z,94529.84
2022-07-30T11:48:57.467Z,94537.78
2022-07-30T11:51:24.643Z,94535.22
2022-07-30T11:54:07.163Z,94539.38
2022-07-30T11:56:34.339Z,94541.00
2022-07-30T11:59:08.306Z,94537.66
2022-07-30T12:01:35.673Z,94537.38
2022-07-30T12:04:04.918Z,94538.63
2022-07-30T12:06:36.528Z,94538.31
2022-07-30T12:09:03.505Z,94533.91
2022-07-30T12:11:35.279Z,94533.72
2022-07-30T12:14:02.667Z,94524.00
2022-07-30T12:16:31.078Z,94531.94
2022-07-30T12:19:09.527Z,94536.53
2022-07-30T12:21:36.787Z,94527.84
2022-07-30T12:24:10.006Z,94537.84
2022-07-30T12:26:37.072Z,94528.06
2022-07-30T12:29:06.829Z,94531.91
2022-07-30T12:31:34.049Z,94527.34
2022-07-30T12:34:05.110Z,94524.03
2022-07-30T12:36:34.014Z,94528.94
2022-07-30T12:39:02.752Z,94524.84
2022-07-30T12:41:42.639Z,94524.06
2022-07-30T12:44:10.131Z,94524.59
2022-07-30T12:46:43.659Z,94523.56
2022-07-30T12:49:22.453Z,94520.59
2022-07-30T12:51:52.390Z,94522.16
2022-07-30T12:54:27.541Z,94513.38
2022-07-30T12:57:00.658Z,94512.06
2022-07-30T12:59:28.466Z,94513.16
2022-07-30T13:01:57.508Z,94512.75
2022-07-30T13:04:24.752Z,94515.22
2022-07-30T13:07:11.298Z,94496.69
2022-07-30T13:09:39.973Z,94503.44
2022-07-30T13:12:07.196Z,94495.69
2022-07-30T13:14:34.384Z,94498.69
2022-07-30T13:17:04.015Z,94500.81
2022-07-30T13:19:31.261Z,94495.44
2022-07-30T13:21:58.179Z,94502.88
2022-07-30T13:24:24.866Z,94502.31
2022-07-30T13:26:51.615Z,94499.41
2022-07-30T13:29:18.356Z,94493.84
2022-07-30T13:31:45.065Z,94492.94
2022-07-30T13:34:12.602Z,94492.50
2022-07-30T13:36:39.699Z,94491.44
2022-07-30T13:39:06.514Z,94489.22
2022-07-30T13:41:34.192Z,94490.22
2022-07-30T13:44:00.875Z,94482.88
2022-07-30T13:46:27.600Z,94481.84
2022-07-30T13:48:55.042Z,94489.66
2022-07-30T13:51:21.950Z,94477.00
2022-07-30T13:53:48.655Z,94479.34
2022-07-30T13:56:16.930Z,94478.91
2022-07-30T13:58:46.939Z,94475.19
2022-07-30T14:01:17.783Z,94470.66
2022-07-30T14:03:49.962Z,94471.75
2022-07-30T14:06:18.813Z,94468.28
2022-07-30T14:08:45.617Z,94460.25
2022-07-30T14:11:12.618Z,94466.69
2022-07-30T14:13:39.569Z,94455.47
2022-07-30T14:16:22.675Z,94449.06
2022-07-30T14:18:53.333Z,94445.81
2022-07-30T14:21:20.027Z,94449.44
2022-07-30T14:23:46.800Z,94445.88
2022-07-30T14:26:14.184Z,94443.63
2022-07-30T14:28:40.917Z,94449.09
2022-07-30T14:31:07.757Z,94448.19
2022-07-30T14:33:34.436Z,94447.34
2022-07-30T14:36:01.143Z,94456.09
2022-07-30T14:38:27.891Z,94452.25
2022-07-30T14:40:54.574Z,94448.44
2022-07-30T14:43:21.306Z,94453.66
2022-07-30T14:45:50.768Z,94446.81
2022-07-30T14:48:17.698Z,94440.00
2022-07-30T14:51:11.791Z,94441.16
2022-07-30T14:53:31.997Z,94441.25
2022-07-30T14:55:58.764Z,94445.59
2022-07-30T14:58:25.826Z,94451.19
2022-07-30T15:00:52.871Z,94435.72
2022-07-30T15:03:20.209Z,94433.84
2022-07-30T15:05:52.096Z,94443.53
2022-07-30T15:08:19.526Z,94443.38
2022-07-30T15:10:46.262Z,94435.09
2022-07-30T15:13:12.940Z,94435.53
2022-07-30T15:15:41.346Z,94434.94
2022-07-30T15:18:10.856Z,94438.56
2022-07-30T15:20:37.644Z,94450.50
2022-07-30T15:23:04.457Z,94446.28
2022-07-30T15:25:32.472Z,94454.63
2022-07-30T15:27:59.231Z,94453.00
2022-07-30T15:30:25.966Z,94444.34
2022-07-30T15:32:54.350Z,94449.31
2022-07-30T15:35:21.379Z,94445.44
2022-07-30T15:37:48.293Z,94448.84
2022-07-30T15:40:15.052Z,94441.22
2022-07-30T15:42:42.770Z,94441.47
2022-07-30T15:45:18.295Z,94447.31
2022-07-30T15:47:46.060Z,94436.81
2022-07-30T15:50:13.393Z,94442.94
2022-07-30T15:52:40.158Z,94444.66
2022-07-30T15:55:07.355Z,94437.44
2022-07-30T15:57:34.012Z,94440.97
2022-07-30T16:00:00.927Z,94441.06
2022-07-30T16:02:28.069Z,94434.25
2022-07-30T16:04:54.858Z,94433.34
2022-07-30T16:07:21.716Z,94435.75
2022-07-30T16:09:48.394Z,94436.34
2022-07-30T16:12:15.055Z,94424.72
2022-07-30T16:14:41.730Z,94424.03
2022-07-30T16:17:13.692Z,94436.09
2022-07-30T16:19:44.993Z,94424.97
2022-07-30T16:22:12.465Z,94434.06
2022-07-30T16:24:48.832Z,94433.31
2022-07-30T16:27:17.259Z,94427.41
2022-07-30T16:29:43.967Z,94436.63
2022-07-30T16:32:10.840Z,94435.78
2022-07-30T16:34:37.659Z,94432.03
2022-07-30T16:37:04.572Z,94434.56
2022-07-30T16:39:31.861Z,94434.63
2022-07-30T16:41:58.607Z,94438.75
2022-07-30T16:44:27.076Z,94439.53
2022-07-30T16:46:53.964Z,94444.44
2022-07-30T16:49:20.726Z,94426.66
2022-07-30T16:51:47.510Z,94431.69
2022-07-30T16:54:14.179Z,94436.69
2022-07-30T16:56:40.885Z,94437.09
2022-07-30T16:59:11.829Z,94428.88
2022-07-30T17:01:40.431Z,94428.88
2022-07-30T17:04:07.134Z,94425.06
2022-07-30T17:06:34.001Z,94421.25
2022-07-30T17:09:00.623Z,94425.25
2022-07-30T17:11:47.441Z,94431.16
2022-07-30T17:14:14.882Z,94431.59
2022-07-30T17:16:41.859Z,94426.88
2022-07-30T17:19:09.289Z,94430.88
2022-07-30T17:21:38.071Z,94428.78
2022-07-30T17:24:11.097Z,94441.91
2022-07-30T17:26:40.485Z,94442.09
2022-07-30T17:29:10.776Z,94451.50
2022-07-30T17:31:43.269Z,94448.94
2022-07-30T17:34:10.882Z,94440.81
2022-07-30T17:36:38.775Z,94442.25
2022-07-30T17:39:05.993Z,94444.06
2022-07-30T17:41:32.934Z,94446.22
2022-07-30T17:43:59.828Z,94453.06
2022-07-30T17:46:27.194Z,94451.63
2022-07-30T17:48:54.200Z,94450.94
2022-07-30T17:51:20.939Z,94453.78
2022-07-30T17:53:47.583Z,94466.69
2022-07-30T17:56:26.666Z,94457.38
2022-07-30T17:58:54.194Z,94464.16
2022-07-30T18:01:21.026Z,94465.00
2022-07-30T18:03:47.718Z,94463.91
2022-07-30T18:06:14.400Z,94464.41
2022-07-30T18:08:41.083Z,94470.66
2022-07-30T18:11:10.665Z,94475.34
2022-07-30T18:13:40.271Z,94478.16
2022-07-30T18:16:08.324Z,94471.97
2022-07-30T18:18:35.044Z,94468.13
2022-07-30T18:21:01.976Z,94483.00
2022-07-30T18:23:34.993Z,94485.41
2022-07-30T18:26:02.015Z,94480.44
2022-07-30T18:28:29.247Z,94481.31
2022-07-30T18:30:56.022Z,94490.34
2022-07-30T18:33:23.148Z,94486.88
2022-07-30T18:35:49.979Z,94486.97
2022-07-30T18:38:16.776Z,94488.97
2022-07-30T18:40:44.978Z,94488.19
2022-07-30T18:43:11.652Z,94482.78
2022-07-30T18:45:38.376Z,94482.41
2022-07-30T18:48:05.478Z,94485.94
2022-07-30T18:50:32.966Z,94487.88
2022-07-30T18:53:00.735Z,94489.91
2022-07-30T18:55:41.832Z,94497.75
2022-07-30T18:58:08.497Z,94498.53
2022-07-30T19:00:35.836Z,94501.28
2022-07-30T19:03:02.891Z,94504.44
2022-07-30T19:05:29.805Z,94493.16
2022-07-30T19:07:58.293Z,94509.53
2022-07-30T19:10:26.622Z,94506.44
2022-07-30T19:12:54.505Z,94514.66
2022-07-30T19:15:21.481Z,94508.44
2022-07-30T19:17:51.818Z,94521.34
2022-07-30T19:20:19.575Z,94520.56
2022-07-30T19:22:46.937Z,94526.00
2022-07-30T19:25:13.926Z,94532.25
2022-07-30T19:27:40.689Z,94533.03
2022-07-30T19:30:07.942Z,94539.66
2022-07-30T19:32:34.611Z,94543.94
2022-07-30T19:35:01.320Z,94547.03
2022-07-30T19:37:28.016Z,94546.25
2022-07-30T19:40:05.368Z,94545.06
2022-07-30T19:42:33.971Z,94547.00
2022-07-30T19:45:11.160Z,94553.25
2022-07-30T19:47:39.701Z,94552.81
2022-07-30T19:50:07.644Z,94555.97
2022-07-30T19:52:36.264Z,94560.25
2022-07-30T19:55:03.940Z,94554.75
2022-07-30T19:57:52.882Z,94552.81
2022-07-30T20:00:25.131Z,94556.34
2022-07-30T20:02:55.646Z,94558.66
2022-07-30T20:05:25.264Z,94562.97
2022-07-30T20:07:57.369Z,94561.41
2022-07-30T20:10:24.787Z,94565.69
2022-07-30T20:12:52.539Z,94561.41
2022-07-30T20:15:20.084Z,94568.00
2022-07-30T20:17:47.162Z,94564.88
2022-07-30T20:20:15.769Z,94569.94
2022-07-30T20:22:43.343Z,94558.22
2022-07-30T20:25:11.224Z,94575.72
2022-07-30T20:27:40.579Z,94571.00
2022-07-30T20:30:09.305Z,94563.16
2022-07-30T20:32:37.772Z,94561.16
2022-07-30T20:35:07.474Z,94565.38
2022-07-30T20:37:40.256Z,94561.47
2022-07-30T20:40:21.711Z,94560.31
2022-07-30T20:42:49.994Z,94569.22
2022-07-30T20:45:16.850Z,94575.06
2022-07-30T20:47:52.427Z,94580.50
2022-07-30T20:50:30.900Z,94578.16
2022-07-30T20:52:58.764Z,94573.09
2022-07-30T20:55:26.590Z,94589.00
2022-07-30T20:58:00.271Z,94576.88
2022-07-30T21:00:33.965Z,94587.75
2022-07-30T21:03:03.212Z,94583.41
2022-07-30T21:05:31.847Z,94587.69
2022-07-30T21:07:58.814Z,94583.00
2022-07-30T21:10:25.552Z,94584.56
2022-07-30T21:12:56.444Z,94581.44
2022-07-30T21:15:25.334Z,94581.41
2022-07-30T21:17:53.251Z,94576.63
2022-07-30T21:20:27.433Z,94589.03
2022-07-30T21:22:55.965Z,94597.56
2022-07-30T21:25:23.524Z,94587.75
2022-07-30T21:28:02.705Z,94604.81
2022-07-30T21:30:30.928Z,94593.09
2022-07-30T21:32:57.839Z,94602.81
2022-07-30T21:35:24.942Z,94594.25
2022-07-30T21:37:58.349Z,94586.38
2022-07-30T21:40:25.168Z,94593.31
2022-07-30T21:42:51.880Z,94590.19
2022-07-30T21:45:19.890Z,94600.63
2022-07-30T21:47:47.525Z,94590.13
2022-07-30T21:50:18.767Z,94601.00
2022-07-30T21:52:47.559Z,94597.09
2022-07-30T21:55:14.310Z,94604.00
2022-07-30T21:57:42.182Z,94604.22
2022-07-30T22:00:14.996Z,94611.00
2022-07-30T22:02:52.757Z,94601.06
2022-07-30T22:05:20.172Z,94610.34
2022-07-30T22:07:50.098Z,94611.03
2022-07-30T22:10:21.295Z,94613.63
2022-07-30T22:12:48.698Z,94612.28
2022-07-30T22:15:15.499Z,94614.84
2022-07-30T22:17:58.346Z,94612.41
2022-07-30T22:20:29.046Z,94622.09
2022-07-30T22:22:57.599Z,94620.19
2022-07-30T22:25:43.748Z,94611.97
2022-07-30T22:28:12.088Z,94613.50
2022-07-30T22:30:40.811Z,94620.44
2022-07-30T22:33:15.162Z,94618.44
2022-07-30T22:35:46.713Z,94606.81
2022-07-30T22:38:17.361Z,94603.97
2022-07-30T22:40:46.465Z,94608.59
2022-07-30T22:43:13.984Z,94610.88
2022-07-30T22:48:29.455Z,94603.09
2022-07-30T22:50:56.194Z,94612.03
2022-07-30T22:54:03.588Z,94599.19
2022-07-30T22:56:15.505Z,94617.50
2022-07-30T22:58:42.839Z,94603.84
2022-07-30T23:01:09.626Z,94611.97
2022-07-30T23:03:37.778Z,94604.81
2022-07-30T23:06:04.535Z,94608.97
2022-07-30T23:08:33.310Z,94597.25
2022-07-30T23:11:00.296Z,94598.59
2022-07-30T23:12:30.392Z,94610.53
2022-07-30T23:13:28.676Z,94594.59
2022-07-30T23:15:55.655Z,94595.88
2022-07-30T23:18:22.331Z,94595.56
2022-07-30T23:20:49.009Z,94594.44
2022-07-30T23:23:15.694Z,94599.41
2022-07-30T23:25:42.374Z,94594.31
2022-07-30T23:28:09.049Z,94602.91
2022-07-30T23:30:35.853Z,94595.94
2022-07-30T23:33:02.947Z,94595.16
2022-07-30T23:35:30.378Z,94593.13
2022-07-30T23:37:57.396Z,94581.06
2022-07-30T23:40:24.171Z,94584.19
2022-07-30T23:42:51.916Z,94591.25
2022-07-30T23:45:19.024Z,94580.06
2022-07-30T23:48:00.800Z,94587.44
2022-07-30T23:50:29.794Z,94579.72
2022-07-30T23:52:56.463Z,94582.44
2022-07-30T23:55:23.320Z,94583.94
2022-07-30T23:57:49.986Z,94574.22
